createdAt,value
2023-09-12T00:00:33.106Z,5.95
2023-09-12T00:03:13.288Z,6.00
2023-09-12T00:06:39.979Z,7.20
2023-09-12T00:08:59.991Z,6.78
2023-09-12T00:13:55.676Z,6.93
2023-09-12T00:16:32.826Z,5.72
2023-09-12T00:19:00.567Z,5.43
2023-09-12T00:21:28.215Z,6.25
2023-09-12T00:23:57.893Z,5.75
2023-09-12T00:26:37.656Z,6.28
2023-09-12T00:29:13.241Z,6.28
2023-09-12T00:31:50.549Z,6.03
2023-09-12T00:34:41.810Z,5.30
2023-09-12T00:37:11.416Z,6.10
2023-09-12T00:39:41.467Z,5.25
2023-09-12T00:42:14.175Z,5.90
2023-09-12T00:44:51.706Z,5.97
2023-09-12T00:47:23.250Z,5.65
2023-09-12T00:50:02.346Z,6.32
2023-09-12T00:52:59.610Z,6.18
2023-09-12T00:55:30.271Z,5.97
2023-09-12T00:58:05.824Z,6.45
2023-09-12T01:00:41.572Z,7.13
2023-09-12T01:03:11.469Z,6.35
2023-09-12T01:08:16.641Z,6.30
2023-09-12T01:10:53.859Z,7.05
2023-09-12T01:13:21.688Z,6.05
2023-09-12T01:16:18.056Z,6.00
2023-09-12T01:21:44.773Z,6.38
2023-09-12T01:24:37.725Z,6.78
2023-09-12T01:30:19.378Z,6.72
2023-09-12T01:32:55.200Z,6.18
2023-09-12T01:35:38.749Z,6.00
2023-09-12T01:38:13.556Z,6.20
2023-09-12T01:40:49.578Z,6.20
2023-09-12T01:43:24.894Z,6.05
2023-09-12T01:46:09.436Z,6.18
2023-09-12T01:48:43.347Z,6.75
2023-09-12T01:51:24.036Z,6.40
2023-09-12T01:53:55.193Z,6.60
2023-09-12T01:59:12.746Z,6.63
2023-09-12T02:01:44.029Z,6.70
2023-09-12T02:04:13.903Z,6.03
2023-09-12T02:06:44.950Z,6.75
2023-09-12T02:09:12.363Z,7.07
2023-09-12T02:11:49.960Z,6.82
2023-09-12T02:14:18.162Z,7.07
2023-09-12T02:16:49.862Z,7.15
2023-09-12T02:19:20.430Z,5.93
2023-09-12T02:21:56.862Z,6.57
2023-09-12T02:24:54.182Z,6.75
2023-09-12T02:27:26.012Z,5.90
2023-09-12T02:29:56.669Z,6.18
2023-09-12T02:32:26.829Z,6.68
2023-09-12T02:35:07.672Z,6.32
2023-09-12T02:37:46.783Z,5.72
2023-09-12T02:40:28.394Z,6.32
2023-09-12T02:43:36.412Z,8.30
2023-09-12T02:46:15.563Z,6.60
2023-09-12T02:48:44.931Z,6.40
2023-09-12T02:51:23.458Z,6.82
2023-09-12T02:53:51.105Z,6.03
2023-09-12T02:56:20.878Z,5.47
2023-09-12T02:58:51.224Z,6.35
2023-09-12T03:01:55.862Z,7.00
2023-09-12T03:04:24.740Z,6.38
2023-09-12T03:09:35.595Z,7.30
2023-09-12T03:12:16.566Z,6.70
2023-09-12T03:14:44.332Z,6.00
2023-09-12T03:17:26.020Z,5.82
2023-09-12T03:20:04.582Z,7.10
2023-09-12T03:25:26.634Z,7.68
2023-09-12T03:28:01.474Z,7.55
2023-09-12T03:30:35.044Z,7.25
2023-09-12T03:33:16.101Z,7.13
2023-09-12T03:35:49.092Z,6.18
2023-09-12T03:38:44.192Z,6.13
2023-09-12T03:41:21.213Z,5.60
2023-09-12T03:43:58.207Z,6.28
2023-09-12T03:46:38.189Z,6.80
2023-09-12T03:49:13.421Z,6.40
2023-09-12T03:51:41.977Z,6.32
2023-09-12T03:54:19.646Z,6.32
2023-09-12T03:56:56.618Z,6.18
2023-09-12T03:59:24.249Z,6.60
2023-09-12T04:02:05.015Z,6.07
2023-09-12T04:04:43.908Z,5.72
2023-09-12T04:07:16.904Z,5.68
2023-09-12T04:09:51.903Z,6.60
2023-09-12T04:12:27.024Z,6.30
2023-09-12T04:15:00.030Z,6.40
2023-09-12T04:17:30.949Z,6.40
2023-09-12T04:20:04.076Z,6.55
2023-09-12T04:22:44.024Z,6.38
2023-09-12T04:25:42.301Z,6.05
2023-09-12T04:31:16.543Z,6.80
2023-09-12T04:33:52.881Z,7.00
2023-09-12T04:36:27.580Z,6.43
2023-09-12T04:38:57.532Z,7.50
2023-09-12T04:41:27.864Z,6.47
2023-09-12T04:44:11.613Z,5.80
2023-09-12T04:46:49.532Z,6.38
2023-09-12T04:49:32.651Z,6.97
2023-09-12T04:54:52.670Z,6.68
2023-09-12T04:57:36.258Z,6.40
2023-09-12T05:00:28.694Z,6.53
2023-09-12T05:03:02.076Z,6.38
2023-09-12T05:06:01.452Z,5.68
2023-09-12T05:08:30.387Z,6.55
2023-09-12T05:11:15.404Z,6.85
2023-09-12T05:13:45.708Z,6.43
2023-09-12T05:19:01.340Z,6.63
2023-09-12T05:21:40.843Z,5.75
2023-09-12T05:24:27.352Z,5.35
2023-09-12T05:27:01.763Z,6.13
2023-09-12T05:29:30.978Z,6.20
2023-09-12T05:31:59.665Z,6.40
2023-09-12T05:34:32.952Z,6.90
2023-09-12T05:37:00.798Z,6.95
2023-09-12T05:39:30.156Z,8.07
2023-09-12T05:42:12.610Z,6.55
2023-09-12T05:45:09.692Z,6.38
2023-09-12T05:47:37.303Z,6.13
2023-09-12T05:50:08.285Z,6.72
2023-09-12T05:52:38.944Z,7.60
2023-09-12T05:55:07.524Z,8.48
2023-09-12T05:57:35.265Z,6.97
2023-09-12T06:00:02.808Z,7.40
2023-09-12T06:02:31.984Z,7.43
2023-09-12T06:04:59.323Z,7.32
2023-09-12T06:07:29.761Z,7.38
2023-09-12T06:10:03.068Z,7.25
2023-09-12T06:12:35.720Z,6.88
2023-09-12T06:15:06.076Z,6.80
2023-09-12T06:17:39.169Z,6.18
2023-09-12T06:20:19.954Z,7.43
2023-09-12T06:22:47.294Z,6.97
2023-09-12T06:25:19.581Z,7.28
2023-09-12T06:28:11.938Z,6.65
2023-09-12T06:30:42.248Z,7.63
2023-09-12T06:33:09.562Z,6.32
2023-09-12T06:35:49.271Z,7.05
2023-09-12T06:38:18.430Z,8.27
2023-09-12T06:40:46.212Z,6.63
2023-09-12T06:43:13.617Z,5.90
2023-09-12T06:45:43.384Z,6.78
2023-09-12T06:48:17.980Z,7.38
2023-09-12T06:51:06.085Z,6.72
2023-09-12T06:54:07.587Z,7.45
2023-09-12T06:56:55.537Z,7.85
2023-09-12T07:02:12.800Z,7.80
2023-09-12T07:04:40.079Z,7.05
2023-09-12T07:07:07.293Z,7.40
2023-09-12T07:09:41.841Z,7.05
2023-09-12T07:12:15.012Z,7.43
2023-09-12T07:14:53.359Z,7.38
2023-09-12T07:17:20.449Z,7.72
2023-09-12T07:19:50.162Z,7.63
2023-09-12T07:22:24.695Z,8.65
2023-09-12T07:25:20.760Z,7.90
2023-09-12T07:28:11.433Z,7.45
2023-09-12T07:31:02.575Z,7.60
2023-09-12T07:33:31.969Z,9.57
2023-09-12T07:36:05.591Z,8.23
2023-09-12T07:38:43.897Z,9.13
2023-09-12T07:41:27.634Z,9.05
2023-09-12T07:44:00.423Z,8.38
2023-09-12T07:46:44.891Z,9.13
2023-09-12T07:49:12.339Z,8.45
2023-09-12T07:51:43.965Z,8.77
2023-09-12T07:57:15.317Z,8.40
2023-09-12T07:59:45.582Z,7.95
2023-09-12T08:02:16.315Z,8.65
2023-09-12T08:07:44.393Z,8.18
2023-09-12T08:10:18.421Z,7.63
2023-09-12T08:12:50.001Z,8.63
2023-09-12T08:15:20.154Z,8.77
2023-09-12T08:17:53.308Z,8.60
2023-09-12T08:20:28.320Z,8.27
2023-09-12T08:22:55.440Z,9.13
2023-09-12T08:25:26.086Z,8.35
2023-09-12T08:27:53.178Z,8.02
2023-09-12T08:30:20.740Z,8.52
2023-09-12T08:33:18.529Z,8.02
2023-09-12T08:35:46.192Z,8.18
2023-09-12T08:38:13.379Z,8.20
2023-09-12T08:40:56.310Z,8.18
2023-09-12T08:43:30.719Z,8.55
2023-09-12T08:45:57.953Z,8.68
2023-09-12T08:48:36.045Z,8.38
2023-09-12T08:51:10.826Z,9.13
2023-09-12T08:53:37.901Z,8.32
2023-09-12T08:56:09.913Z,8.35
2023-09-12T08:58:37.287Z,7.97
2023-09-12T09:01:05.843Z,8.43
2023-09-12T09:03:36.739Z,7.68
2023-09-12T09:08:51.141Z,7.82
2023-09-12T09:11:28.568Z,7.38
2023-09-12T09:13:57.398Z,8.35
2023-09-12T09:16:48.072Z,7.63
2023-09-12T09:19:22.125Z,7.72
2023-09-12T09:22:07.673Z,7.03
2023-09-12T09:24:42.025Z,6.93
2023-09-12T09:27:09.392Z,6.00
2023-09-12T09:32:38.335Z,6.50
2023-09-12T09:35:10.471Z,6.20
2023-09-12T09:37:43.256Z,6.07
2023-09-12T09:43:03.726Z,5.95
2023-09-12T09:45:53.019Z,7.35
2023-09-12T09:48:25.876Z,8.88
2023-09-12T09:51:04.583Z,7.35
2023-09-12T09:53:37.839Z,8.57
2023-09-12T09:56:26.344Z,7.78
2023-09-12T09:58:57.949Z,8.40
2023-09-12T10:01:47.500Z,8.73
2023-09-12T10:04:19.232Z,8.13
2023-09-12T10:07:04.383Z,8.38
2023-09-12T10:09:48.720Z,8.07
2023-09-12T10:12:18.210Z,8.98
2023-09-12T10:14:56.610Z,8.23
2023-09-12T10:17:27.967Z,7.40
2023-09-12T10:23:13.286Z,6.75
2023-09-12T10:26:05.692Z,6.88
2023-09-12T10:28:34.079Z,6.70
2023-09-12T10:31:30.713Z,6.43
2023-09-12T10:34:02.244Z,6.57
2023-09-12T10:36:33.090Z,6.47
2023-09-12T10:39:06.150Z,7.00
2023-09-12T10:41:39.234Z,7.07
2023-09-12T10:44:21.280Z,6.45
2023-09-12T10:47:13.204Z,6.78
2023-09-12T10:49:57.044Z,7.00
2023-09-12T10:52:43.760Z,6.55
2023-09-12T10:55:21.950Z,7.35
2023-09-12T11:01:29.136Z,7.18
2023-09-12T11:04:30.255Z,6.28
2023-09-12T11:07:47.855Z,6.47
2023-09-12T11:10:30.970Z,6.85
2023-09-12T11:13:25.980Z,6.60
2023-09-12T11:22:34.854Z,6.97
2023-09-12T11:25:09.173Z,7.25
2023-09-12T11:28:06.428Z,6.32
2023-09-12T11:30:42.664Z,6.63
2023-09-12T11:33:25.076Z,6.75
2023-09-12T11:36:31.171Z,6.82
2023-09-12T11:39:30.278Z,7.55
2023-09-12T11:42:30.538Z,7.05
2023-09-12T11:48:02.088Z,7.38
2023-09-12T11:54:27.366Z,6.90
2023-09-12T12:00:02.734Z,6.10
2023-09-12T12:02:41.834Z,5.93
2023-09-12T12:05:18.796Z,6.28
2023-09-12T12:11:11.166Z,6.57
2023-09-12T12:14:01.514Z,5.75
2023-09-12T12:19:38.927Z,5.00
2023-09-12T12:22:23.212Z,5.53
2023-09-12T12:25:58.537Z,4.85
2023-09-12T12:28:50.271Z,5.80
2023-09-12T12:31:24.996Z,5.90
2023-09-12T12:37:13.315Z,5.93
2023-09-12T12:40:39.834Z,5.72
2023-09-12T12:46:52.750Z,5.88
2023-09-12T17:16:27.151Z,2.10
2023-09-12T17:18:54.459Z,2.88
2023-09-12T17:21:21.411Z,2.60
2023-09-12T17:23:49.773Z,2.80
2023-09-12T17:26:19.329Z,2.45
2023-09-12T17:28:49.381Z,3.90
2023-09-12T17:31:25.185Z,2.17
2023-09-12T17:36:37.451Z,2.05
2023-09-12T17:41:51.258Z,2.15
2023-09-12T17:44:18.745Z,2.83
2023-09-12T17:46:45.994Z,2.42
2023-09-12T17:49:13.054Z,2.30
2023-09-12T17:51:41.825Z,2.55
2023-09-12T17:54:08.916Z,2.20
2023-09-12T17:56:36.075Z,2.47
2023-09-12T17:59:03.193Z,1.88
2023-09-12T18:01:30.564Z,1.90
2023-09-12T18:04:00.375Z,1.60
2023-09-12T18:06:30.492Z,1.45
2023-09-12T18:09:08.390Z,2.10
2023-09-12T18:11:38.823Z,1.80
2023-09-12T18:14:08.928Z,1.95
2023-09-12T18:16:36.835Z,1.40
2023-09-12T18:19:04.365Z,1.65
2023-09-12T18:21:31.487Z,1.77
2023-09-12T18:23:58.587Z,1.65
2023-09-12T18:26:26.971Z,1.45
2023-09-12T18:29:00.493Z,1.40
2023-09-12T18:31:27.651Z,1.70
2023-09-12T18:33:54.819Z,1.85
2023-09-12T18:36:24.339Z,2.30
2023-09-12T18:38:51.352Z,1.73
2023-09-12T18:41:19.630Z,2.08
2023-09-12T18:43:50.834Z,1.15
2023-09-12T18:46:18.026Z,1.52
2023-09-12T18:48:47.249Z,1.40
2023-09-12T18:51:14.461Z,1.63
2023-09-12T18:53:44.245Z,1.73
2023-09-12T18:56:14.790Z,1.13
2023-09-12T18:58:52.609Z,1.08
2023-09-12T19:01:22.917Z,1.80
2023-09-12T19:03:50.646Z,1.23
2023-09-12T19:06:18.075Z,1.13
2023-09-12T19:08:45.176Z,1.33
2023-09-12T19:11:12.289Z,1.40
2023-09-12T19:13:39.706Z,1.63
2023-09-12T19:16:07.136Z,1.33
2023-09-12T19:18:34.281Z,1.67
2023-09-12T19:21:01.599Z,1.55
2023-09-12T19:23:31.320Z,1.52
2023-09-12T19:25:58.659Z,1.95
2023-09-12T19:28:26.083Z,1.65
2023-09-12T19:30:53.374Z,1.45
2023-09-12T19:33:22.784Z,1.75
2023-09-12T19:35:49.789Z,1.38
2023-09-12T19:38:28.712Z,1.38
2023-09-12T19:41:02.335Z,1.52
2023-09-12T19:43:37.860Z,1.55
2023-09-12T19:46:07.175Z,1.52
2023-09-12T19:48:36.436Z,1.45
2023-09-12T19:51:07.956Z,1.50
2023-09-12T19:53:46.569Z,2.17
2023-09-12T19:56:13.980Z,1.35
2023-09-12T19:58:41.242Z,1.45
2023-09-12T20:01:08.822Z,1.88
2023-09-12T20:03:44.261Z,1.60
2023-09-12T20:06:12.135Z,1.70
2023-09-12T20:08:39.845Z,1.70
2023-09-12T20:11:11.844Z,1.70
2023-09-12T20:13:57.976Z,1.15
2023-09-12T20:16:25.373Z,1.58
2023-09-12T20:18:57.373Z,1.20
2023-09-12T20:29:37.564Z,1.17
2023-09-12T20:32:18.973Z,1.60
2023-09-12T20:34:48.477Z,1.58
2023-09-12T20:37:18.576Z,1.40
2023-09-12T20:39:50.907Z,1.42
2023-09-12T20:42:32.122Z,1.80
2023-09-12T20:45:32.334Z,1.65
2023-09-12T20:48:07.737Z,1.60
2023-09-12T20:59:37.181Z,2.33
